Aviation Digital Data Service (ADDS)

Output produced by METARs form (1158 UTC 25 June 2018)
found at http://www.aviationweather.gov/adds/metars/
 
METAR text: KOLM 251154Z AUTO 21010KT 10SM SCT018 SCT023 12/11 A2999 RMK AO2 SLP155 60009 70009 T01220106 10178 20122 53010
Conditions at: KOLM (OLYMPIA , WA, US) observed 1154 UTC 25 June 2018
Temperature: 12.2°C (54°F)
Dewpoint: 10.6°C (51°F) [RH = 90%]
Pressure (altimeter): 29.99 inches Hg (1015.7 mb)
[Sea-level pressure: 1015.5 mb]
Winds: from the SSW (210 degrees) at 12 MPH (10 knots; 5.2 m/s)
Visibility: 10 or more miles (16+ km)
Ceiling: at least 12,000 feet AGL
Clouds: scattered clouds at 1800 feet AGL
scattered clouds at 2300 feet AGL
Weather: automated observation with no human augmentation;
there may or may not be significant weather present at this time